Terminal Aerodrome Forecast
Issued by NWS

Home | Current Version | Previous Version | Graphics & Text | Print | Product List | Glossary On
Versions: 1 2 3 4 5 6 7 8 9 10 11 12 13 14 15 16 17 18 19 20 21 22 23 24 25 26 27 28 29 30 31 32 33
934
FTUS43 KLOT 192102 AAA
TAFMDW
TAF AMD
KMDW 192102Z 1921/2024 29006KT P6SM OVC020
     FM192200 08008KT P6SM BKN030
     FM200000 06006KT P6SM SCT035
     FM200700 03010G16KT 6SM -SHRA BR BKN007 BKN010 OVC020
     FM201300 03011G17KT 6SM BR BKN007 OVC020
     FM201700 05009KT P6SM SCT007 OVC012=

USA.gov is the U.S. government's official web portal to all federal, state and local government web resources and services.